Time,TemperatureF,DewpointF,PressureIn,WindDirection,WindDirectionDegrees,WindSpeedMPH,WindSpeedGustMPH,Humidity,HourlyPrecipIn,Conditions,Clouds,dailyrainin,SoftwareType,DateUTC
2014-02-02 00:00:00,15.8,6.8,24.81,North,353,0.0,0.0,67,0.00,,,0.00,WeatherTracker,2014-02-02 07:00:00,
2014-02-02 00:05:00,15.4,6.5,24.78,North,0,0.0,0.0,67,0.00,,,0.00,WeatherTracker,2014-02-02 07:05:00,
2014-02-02 00:15:00,15.3,6.3,24.78,North,11,0.0,0.0,67,0.00,,,0.00,WeatherTracker,2014-02-02 07:15:00,
2014-02-02 00:20:00,14.9,6.0,24.81,North,1,0.0,0.0,67,0.00,,,0.00,WeatherTracker,2014-02-02 07:20:00,
2014-02-02 00:25:00,14.7,5.8,24.81,North,1,0.0,0.0,67,0.00,,,0.00,WeatherTracker,2014-02-02 07:25:00,
2014-02-02 00:30:00,14.5,5.3,24.81,North,1,0.0,0.0,66,0.00,,,0.00,WeatherTracker,2014-02-02 07:30:00,
2014-02-02 00:35:00,14.4,5.1,24.78,NNE,18,0.0,0.0,66,0.00,,,0.00,WeatherTracker,2014-02-02 07:35:00,
2014-02-02 00:40:00,14.2,4.9,24.78,NNE,18,0.0,0.0,66,0.00,,,0.00,WeatherTracker,2014-02-02 07:40:00,
2014-02-02 00:50:00,13.5,4.3,24.78,NE,42,0.0,0.0,66,0.00,,,0.00,WeatherTracker,2014-02-02 07:50:00,
2014-02-02 00:55:00,13.5,4.3,24.78,West,281,0.0,0.0,66,0.00,,,0.00,WeatherTracker,2014-02-02 07:55:00,
2014-02-02 01:00:00,13.3,4.1,24.78,NNW,335,0.0,0.0,66,0.00,,,0.00,WeatherTracker,2014-02-02 08:00:00,
2014-02-02 01:05:00,13.3,4.1,24.78,NE,37,0.0,0.0,66,0.00,,,0.00,WeatherTracker,2014-02-02 08:05:00,
2014-02-02 01:15:00,12.9,3.7,24.78,North,353,0.0,0.0,66,0.00,,,0.00,WeatherTracker,2014-02-02 08:15:00,
2014-02-02 01:25:00,12.7,3.6,24.78,WSW,249,0.0,0.0,66,0.00,,,0.00,WeatherTracker,2014-02-02 08:25:00,
2014-02-02 01:35:00,12.4,3.2,24.78,NNE,24,0.0,0.0,66,0.00,,,0.00,WeatherTracker,2014-02-02 08:35:00,
2014-02-02 01:40:00,12.4,3.2,24.78,NNE,27,0.0,0.0,66,0.00,,,0.00,WeatherTracker,2014-02-02 08:40:00,
2014-02-02 01:45:00,12.7,3.6,24.78,NNE,29,0.0,0.0,66,0.00,,,0.00,WeatherTracker,2014-02-02 08:45:00,
2014-02-02 01:50:00,13.1,3.9,24.78,NNE,29,0.0,0.0,66,0.00,,,0.00,WeatherTracker,2014-02-02 08:50:00,
2014-02-02 02:00:00,13.1,3.9,24.78,NNE,29,0.0,0.0,66,0.00,,,0.00,WeatherTracker,2014-02-02 09:00:00,
2014-02-02 02:10:00,12.6,3.4,24.78,North,0,0.0,0.0,66,0.00,,,0.00,WeatherTracker,2014-02-02 09:10:00,
2014-02-02 02:20:00,12.9,3.7,24.78,NE,48,0.0,0.0,66,0.00,,,0.00,WeatherTracker,2014-02-02 09:20:00,
2014-02-02 02:25:00,13.3,4.1,24.78,NE,48,0.0,0.0,66,0.00,,,0.00,WeatherTracker,2014-02-02 09:25:00,
2014-02-02 02:35:00,13.3,4.1,24.78,NE,48,0.0,0.0,66,0.00,,,0.00,WeatherTracker,2014-02-02 09:35:00,
2014-02-02 02:40:00,13.5,4.3,24.78,NE,48,0.0,0.0,66,0.00,,,0.00,WeatherTracker,2014-02-02 09:40:00,
2014-02-02 02:50:00,13.8,4.6,24.78,NE,48,0.0,0.0,66,0.00,,,0.00,WeatherTracker,2014-02-02 09:50:00,
2014-02-02 02:55:00,13.8,4.6,24.78,NNE,31,0.0,0.0,66,0.00,,,0.00,WeatherTracker,2014-02-02 09:55:00,
2014-02-02 03:05:00,14.4,6.1,24.78,NNE,31,0.0,0.0,69,0.00,,,0.00,WeatherTracker,2014-02-02 10:05:00,
2014-02-02 03:10:00,14.5,6.3,24.78,NNE,31,0.0,0.0,69,0.00,,,0.00,WeatherTracker,2014-02-02 10:10:00,
2014-02-02 03:15:00,14.5,6.3,24.78,NNE,31,0.0,0.0,69,0.00,,,0.00,WeatherTracker,2014-02-02 10:15:00,
2014-02-02 03:20:00,14.5,6.3,24.78,NNE,31,0.0,0.0,69,0.00,,,0.00,WeatherTracker,2014-02-02 10:20:00,
2014-02-02 03:25:00,14.9,6.6,24.78,NNE,31,0.0,0.0,69,0.00,,,0.00,WeatherTracker,2014-02-02 10:25:00,
2014-02-02 03:30:00,14.9,6.6,24.78,NNE,31,0.0,0.0,69,0.00,,,0.00,WeatherTracker,2014-02-02 10:30:00,
2014-02-02 03:40:00,15.1,6.8,24.78,NNE,31,0.0,0.0,69,0.00,,,0.00,WeatherTracker,2014-02-02 10:40:00,
2014-02-02 03:45:00,15.1,6.8,24.78,NNE,31,0.0,0.0,69,0.00,,,0.00,WeatherTracker,2014-02-02 10:45:00,
2014-02-02 03:50:00,14.5,5.9,24.78,NNE,31,0.0,0.0,68,0.00,,,0.00,WeatherTracker,2014-02-02 10:50:00,
2014-02-02 04:00:00,14.5,5.9,24.78,ENE,70,0.0,0.0,68,0.00,,,0.00,WeatherTracker,2014-02-02 11:00:00,
2014-02-02 04:10:00,14.5,5.9,24.78,SSE,152,0.0,0.0,68,0.00,,,0.00,WeatherTracker,2014-02-02 11:10:00,
2014-02-02 04:15:00,14.5,6.3,24.78,SSE,152,0.0,0.0,69,0.00,,,0.00,WeatherTracker,2014-02-02 11:15:00,
2014-02-02 04:20:00,14.2,5.6,24.78,SSE,154,0.0,0.0,68,0.00,,,0.00,WeatherTracker,2014-02-02 11:20:00,
2014-02-02 04:25:00,14.0,5.4,24.78,SSE,154,0.0,0.0,68,0.00,,,0.00,WeatherTracker,2014-02-02 11:25:00,
2014-02-02 04:30:00,14.2,5.9,24.78,SSE,154,0.0,0.0,69,0.00,,,0.00,WeatherTracker,2014-02-02 11:30:00,
2014-02-02 04:35:00,14.4,6.1,24.75,SSE,154,0.0,0.0,69,0.00,,,0.00,WeatherTracker,2014-02-02 11:35:00,
2014-02-02 04:40:00,14.4,6.1,24.75,SSE,154,0.0,0.0,69,0.00,,,0.00,WeatherTracker,2014-02-02 11:40:00,
2014-02-02 04:45:00,14.4,6.1,24.75,SSE,154,0.0,0.0,69,0.00,,,0.00,WeatherTracker,2014-02-02 11:45:00,
2014-02-02 04:55:00,14.4,6.1,24.75,SSE,154,0.0,0.0,69,0.00,,,0.00,WeatherTracker,2014-02-02 11:55:00,
2014-02-02 05:00:00,14.4,6.1,24.75,South,177,0.0,0.0,69,0.00,,,0.00,WeatherTracker,2014-02-02 12:00:00,
2014-02-02 05:05:00,14.2,5.9,24.75,South,177,0.0,0.0,69,0.00,,,0.00,WeatherTracker,2014-02-02 12:05:00,
2014-02-02 05:15:00,14.0,5.7,24.75,South,177,0.0,0.0,69,0.00,,,0.00,WeatherTracker,2014-02-02 12:15:00,
2014-02-02 05:25:00,14.0,5.7,24.75,South,177,0.0,0.0,69,0.00,,,0.00,WeatherTracker,2014-02-02 12:25:00,
2014-02-02 05:30:00,14.0,5.7,24.75,South,177,0.0,0.0,69,0.00,,,0.00,WeatherTracker,2014-02-02 12:30:00,
2014-02-02 05:35:00,13.8,5.6,24.75,South,177,0.0,0.0,69,0.00,,,0.00,WeatherTracker,2014-02-02 12:35:00,
2014-02-02 05:40:00,13.6,5.4,24.75,South,177,0.0,0.0,69,0.00,,,0.00,WeatherTracker,2014-02-02 12:40:00,
2014-02-02 05:50:00,12.9,4.7,24.75,South,177,0.0,0.0,69,0.00,,,0.00,WeatherTracker,2014-02-02 12:50:00,
2014-02-02 06:00:00,13.1,4.9,24.75,South,177,0.0,0.0,69,0.00,,,0.00,WeatherTracker,2014-02-02 13:00:00,
2014-02-02 06:05:00,12.9,4.7,24.75,South,177,0.0,0.0,69,0.00,,,0.00,WeatherTracker,2014-02-02 13:05:00,
2014-02-02 06:10:00,12.6,4.4,24.75,South,177,0.0,0.0,69,0.00,,,0.00,WeatherTracker,2014-02-02 13:10:00,
2014-02-02 06:15:00,12.6,4.4,24.75,South,177,0.0,0.0,69,0.00,,,0.00,WeatherTracker,2014-02-02 13:15:00,
2014-02-02 06:20:00,12.6,4.4,24.75,South,177,0.0,0.0,69,0.00,,,0.00,WeatherTracker,2014-02-02 13:20:00,
2014-02-02 06:25:00,12.6,4.4,24.75,South,177,0.0,0.0,69,0.00,,,0.00,WeatherTracker,2014-02-02 13:25:00,
2014-02-02 06:30:00,12.0,3.8,24.75,South,177,0.0,0.0,69,0.00,,,0.00,WeatherTracker,2014-02-02 13:30:00,
2014-02-02 06:40:00,11.8,3.7,24.75,South,177,0.0,0.0,69,0.00,,,0.00,WeatherTracker,2014-02-02 13:40:00,
2014-02-02 06:45:00,11.7,3.5,24.75,South,177,0.0,0.0,69,0.00,,,0.00,WeatherTracker,2014-02-02 13:45:00,
2014-02-02 06:50:00,11.3,3.1,24.75,South,177,0.0,0.0,69,0.00,,,0.00,WeatherTracker,2014-02-02 13:50:00,
2014-02-02 06:55:00,10.9,2.8,24.75,South,177,0.0,0.0,69,0.00,,,0.00,WeatherTracker,2014-02-02 13:55:00,
2014-02-02 07:00:00,10.8,2.6,24.75,South,177,0.0,0.0,69,0.00,,,0.00,WeatherTracker,2014-02-02 14:00:00,
2014-02-02 07:05:00,10.8,2.6,24.78,South,177,0.0,0.0,69,0.00,,,0.00,WeatherTracker,2014-02-02 14:05:00,
2014-02-02 07:15:00,10.8,2.6,24.78,South,177,0.0,0.0,69,0.00,,,0.00,WeatherTracker,2014-02-02 14:15:00,
2014-02-02 07:25:00,10.6,2.5,24.78,South,177,0.0,0.0,69,0.00,,,0.00,WeatherTracker,2014-02-02 14:25:00,
2014-02-02 07:35:00,10.8,2.6,24.78,South,177,0.0,0.0,69,0.00,,,0.00,WeatherTracker,2014-02-02 14:35:00,
2014-02-02 07:40:00,10.6,2.5,24.78,South,177,0.0,0.0,69,0.00,,,0.00,WeatherTracker,2014-02-02 14:40:00,
2014-02-02 07:45:00,10.8,2.6,24.78,South,177,0.0,0.0,69,0.00,,,0.00,WeatherTracker,2014-02-02 14:45:00,
2014-02-02 07:50:00,10.4,2.3,24.78,South,177,0.0,0.0,69,0.00,,,0.00,WeatherTracker,2014-02-02 14:50:00,
2014-02-02 07:55:00,10.8,2.6,24.78,South,177,0.0,0.0,69,0.00,,,0.00,WeatherTracker,2014-02-02 14:55:00,
2014-02-02 08:00:00,10.6,2.5,24.78,South,177,0.0,0.0,69,0.00,,,0.00,WeatherTracker,2014-02-02 15:00:00,
2014-02-02 08:05:00,10.9,2.8,24.78,South,177,0.0,0.0,69,0.00,,,0.00,WeatherTracker,2014-02-02 15:05:00,
2014-02-02 08:15:00,12.0,3.8,24.78,South,177,0.0,0.0,69,0.00,,,0.00,WeatherTracker,2014-02-02 15:15:00,
2014-02-02 08:20:00,12.7,4.5,24.78,South,177,0.0,0.0,69,0.00,,,0.00,WeatherTracker,2014-02-02 15:20:00,
2014-02-02 08:25:00,13.3,5.0,24.78,South,177,0.0,0.0,69,0.00,,,0.00,WeatherTracker,2014-02-02 15:25:00,
2014-02-02 08:30:00,13.8,5.6,24.78,South,177,0.0,0.0,69,0.00,,,0.00,WeatherTracker,2014-02-02 15:30:00,
2014-02-02 08:35:00,13.6,6.0,24.78,South,177,0.0,0.0,71,0.00,,,0.00,WeatherTracker,2014-02-02 15:35:00,
2014-02-02 08:40:00,13.8,6.2,24.78,South,177,0.0,0.0,71,0.00,,,0.00,WeatherTracker,2014-02-02 15:40:00,
2014-02-02 08:50:00,14.2,5.9,24.78,South,177,0.0,0.0,69,0.00,,,0.00,WeatherTracker,2014-02-02 15:50:00,
2014-02-02 09:00:00,15.1,6.8,24.78,South,176,0.0,0.0,69,0.00,,,0.00,WeatherTracker,2014-02-02 16:00:00,
2014-02-02 09:10:00,15.1,6.1,24.78,South,177,0.0,0.0,67,0.00,,,0.00,WeatherTracker,2014-02-02 16:10:00,
2014-02-02 09:15:00,15.1,6.1,24.78,South,177,0.0,0.0,67,0.00,,,0.00,WeatherTracker,2014-02-02 16:15:00,
2014-02-02 09:25:00,16.7,8.3,24.78,South,177,0.0,0.0,69,0.00,,,0.00,WeatherTracker,2014-02-02 16:25:00,
2014-02-02 09:30:00,17.8,9.4,24.78,South,177,0.0,0.0,69,0.00,,,0.00,WeatherTracker,2014-02-02 16:30:00,
2014-02-02 09:35:00,18.5,9.7,24.78,South,177,0.0,0.0,68,0.00,,,0.00,WeatherTracker,2014-02-02 16:35:00,
2014-02-02 09:40:00,19.0,9.6,24.78,South,177,0.0,0.0,66,0.00,,,0.00,WeatherTracker,2014-02-02 16:40:00,
2014-02-02 09:45:00,19.9,10.4,24.78,South,177,0.0,0.0,66,0.00,,,0.00,WeatherTracker,2014-02-02 16:45:00,
2014-02-02 09:50:00,20.5,10.3,24.78,South,177,0.0,0.0,64,0.00,,,0.00,WeatherTracker,2014-02-02 16:50:00,
2014-02-02 10:00:00,20.1,8.5,24.78,South,177,0.0,0.0,60,0.00,,,0.00,WeatherTracker,2014-02-02 17:00:00,
2014-02-02 10:05:00,20.1,8.5,24.78,South,177,0.0,0.0,60,0.00,,,0.00,WeatherTracker,2014-02-02 17:05:00,
2014-02-02 10:10:00,20.8,9.2,24.78,South,177,0.0,0.0,60,0.00,,,0.00,WeatherTracker,2014-02-02 17:10:00,
2014-02-02 10:15:00,21.6,9.5,24.78,South,177,0.0,0.0,59,0.00,,,0.00,WeatherTracker,2014-02-02 17:15:00,
2014-02-02 10:20:00,21.7,9.3,24.78,South,177,0.0,0.0,58,0.00,,,0.00,WeatherTracker,2014-02-02 17:20:00,
2014-02-02 10:25:00,21.7,8.1,24.78,South,177,0.0,0.0,55,0.00,,,0.00,WeatherTracker,2014-02-02 17:25:00,
2014-02-02 10:35:00,23.2,9.4,24.78,South,177,0.0,0.0,55,0.00,,,0.00,WeatherTracker,2014-02-02 17:35:00,
2014-02-02 10:45:00,25.2,10.0,24.78,South,177,0.0,0.0,52,0.00,,,0.00,WeatherTracker,2014-02-02 17:45:00,
2014-02-02 10:50:00,25.7,9.7,24.78,South,177,0.0,0.0,50,0.00,,,0.00,WeatherTracker,2014-02-02 17:50:00,
2014-02-02 10:55:00,25.7,8.8,24.78,South,177,0.0,0.0,48,0.00,,,0.00,WeatherTracker,2014-02-02 17:55:00,
2014-02-02 11:00:00,26.2,9.3,24.78,South,177,0.0,0.0,48,0.00,,,0.00,WeatherTracker,2014-02-02 18:00:00,
2014-02-02 11:10:00,26.4,8.5,24.78,South,177,0.0,0.0,46,0.00,,,0.00,WeatherTracker,2014-02-02 18:10:00,
2014-02-02 11:15:00,27.3,8.8,24.78,South,177,0.0,0.0,45,0.00,,,0.00,WeatherTracker,2014-02-02 18:15:00,
2014-02-02 11:20:00,27.7,9.1,24.78,South,177,0.0,0.0,45,0.00,,,0.00,WeatherTracker,2014-02-02 18:20:00,
2014-02-02 11:25:00,28.6,9.5,24.78,South,177,0.0,0.0,44,0.00,,,0.00,WeatherTracker,2014-02-02 18:25:00,
2014-02-02 11:35:00,27.7,7.6,24.75,South,177,0.0,0.0,42,0.00,,,0.00,WeatherTracker,2014-02-02 18:35:00,
2014-02-02 11:40:00,27.9,7.8,24.75,South,177,0.0,0.0,42,0.00,,,0.00,WeatherTracker,2014-02-02 18:40:00,
2014-02-02 11:50:00,28.6,8.4,24.75,South,178,0.0,0.0,42,0.00,,,0.00,WeatherTracker,2014-02-02 18:50:00,
2014-02-02 11:55:00,28.8,8.1,24.75,South,178,0.0,0.0,41,0.00,,,0.00,WeatherTracker,2014-02-02 18:55:00,
2014-02-02 12:00:00,30.0,9.2,24.75,South,178,0.0,0.0,41,0.00,,,0.00,WeatherTracker,2014-02-02 19:00:00,
2014-02-02 12:05:00,30.2,9.4,24.75,South,178,0.0,0.0,41,0.00,,,0.00,WeatherTracker,2014-02-02 19:05:00,
2014-02-02 12:10:00,31.1,10.2,24.75,South,178,0.0,0.0,41,0.00,,,0.00,WeatherTracker,2014-02-02 19:10:00,
2014-02-02 12:20:00,31.5,10.0,24.75,South,178,0.0,0.0,40,0.00,,,0.00,WeatherTracker,2014-02-02 19:20:00,
2014-02-02 12:25:00,31.8,10.3,24.75,South,178,0.0,0.0,40,0.00,,,0.00,WeatherTracker,2014-02-02 19:25:00,
2014-02-02 12:30:00,31.8,10.3,24.75,South,178,0.0,0.0,40,0.00,,,0.00,WeatherTracker,2014-02-02 19:30:00,
2014-02-02 12:40:00,29.5,7.6,24.75,South,178,0.0,0.0,39,0.00,,,0.00,WeatherTracker,2014-02-02 19:40:00,
2014-02-02 12:45:00,29.3,7.4,24.75,South,179,0.0,0.0,39,0.00,,,0.00,WeatherTracker,2014-02-02 19:45:00,
2014-02-02 12:55:00,28.0,6.9,24.75,South,179,0.0,0.0,40,0.00,,,0.00,WeatherTracker,2014-02-02 19:55:00,
2014-02-02 13:00:00,28.0,7.4,24.75,North,357,0.0,0.0,41,0.00,,,0.00,WeatherTracker,2014-02-02 20:00:00,
2014-02-02 13:05:00,27.9,7.2,24.72,NNW,342,0.0,0.0,41,0.00,,,0.00,WeatherTracker,2014-02-02 20:05:00,
2014-02-02 13:10:00,27.5,6.9,24.72,NW,321,0.0,0.0,41,0.00,,,0.00,WeatherTracker,2014-02-02 20:10:00,
2014-02-02 13:15:00,27.0,6.4,24.72,NNW,345,0.0,0.0,41,0.00,,,0.00,WeatherTracker,2014-02-02 20:15:00,
2014-02-02 13:20:00,26.8,6.8,24.72,North,357,0.0,0.0,42,0.00,,,0.00,WeatherTracker,2014-02-02 20:20:00,
2014-02-02 13:30:00,25.9,6.5,24.72,NNE,29,0.0,0.0,43,0.00,,,0.00,WeatherTracker,2014-02-02 20:30:00,
2014-02-02 13:35:00,25.7,6.3,24.72,North,8,0.0,0.0,43,0.00,,,0.00,WeatherTracker,2014-02-02 20:35:00,
2014-02-02 13:40:00,25.5,6.7,24.72,NW,316,0.0,0.0,44,0.00,,,0.00,WeatherTracker,2014-02-02 20:40:00,
2014-02-02 13:45:00,25.5,6.7,24.72,NW,314,0.0,0.0,44,0.00,,,0.00,WeatherTracker,2014-02-02 20:45:00,
2014-02-02 13:55:00,25.3,6.5,24.72,North,0,0.0,0.0,44,0.00,,,0.00,WeatherTracker,2014-02-02 20:55:00,
2014-02-02 14:05:00,25.0,6.2,24.72,North,2,0.0,0.0,44,0.00,,,0.00,WeatherTracker,2014-02-02 21:05:00,
2014-02-02 14:15:00,24.4,6.2,24.72,North,1,0.0,0.0,45,0.00,,,0.00,WeatherTracker,2014-02-02 21:15:00,
2014-02-02 14:20:00,24.4,6.7,24.72,NE,45,0.0,0.0,46,0.00,,,0.00,WeatherTracker,2014-02-02 21:20:00,
2014-02-02 14:25:00,24.3,6.5,24.72,NW,319,0.0,0.0,46,0.00,,,0.00,WeatherTracker,2014-02-02 21:25:00,
2014-02-02 14:30:00,24.1,6.3,24.72,NNE,25,0.0,0.0,46,0.00,,,0.00,WeatherTracker,2014-02-02 21:30:00,
2014-02-02 14:40:00,23.9,6.2,24.72,North,350,0.0,0.0,46,0.00,,,0.00,WeatherTracker,2014-02-02 21:40:00,
2014-02-02 14:45:00,23.5,6.3,24.72,ENE,59,0.0,0.0,47,0.00,,,0.00,WeatherTracker,2014-02-02 21:45:00,
2014-02-02 14:50:00,23.5,6.3,24.72,NNW,342,0.0,0.0,47,0.00,,,0.00,WeatherTracker,2014-02-02 21:50:00,
2014-02-02 14:55:00,23.2,6.4,24.72,NNW,331,0.0,0.0,48,0.00,,,0.00,WeatherTracker,2014-02-02 21:55:00,
2014-02-02 15:00:00,23.2,6.9,24.72,NE,42,0.0,0.0,49,0.00,,,0.00,WeatherTracker,2014-02-02 22:00:00,
2014-02-02 15:05:00,22.8,6.6,24.72,North,9,0.0,0.0,49,0.00,,,0.00,WeatherTracker,2014-02-02 22:05:00,
2014-02-02 15:15:00,22.3,6.1,24.72,North,9,0.0,0.0,49,0.00,,,0.00,WeatherTracker,2014-02-02 22:15:00,
2014-02-02 15:20:00,22.3,6.5,24.72,NW,320,0.0,0.0,50,0.00,,,0.00,WeatherTracker,2014-02-02 22:20:00,
2014-02-02 15:30:00,21.9,6.2,24.72,NNE,20,0.0,0.0,50,0.00,,,0.00,WeatherTracker,2014-02-02 22:30:00,
2014-02-02 15:35:00,21.9,6.2,24.72,NNE,24,0.0,0.0,50,0.00,,,0.00,WeatherTracker,2014-02-02 22:35:00,
2014-02-02 15:40:00,21.7,6.0,24.72,NE,38,0.0,0.0,50,0.00,,,0.00,WeatherTracker,2014-02-02 22:40:00,
2014-02-02 15:50:00,21.6,6.3,24.72,North,0,0.0,0.0,51,0.00,,,0.00,WeatherTracker,2014-02-02 22:50:00,
2014-02-02 15:55:00,21.7,6.4,24.72,North,353,0.0,0.0,51,0.00,,,0.00,WeatherTracker,2014-02-02 22:55:00,
2014-02-02 16:00:00,21.7,6.9,24.72,NW,304,0.0,0.0,52,0.00,,,0.00,WeatherTracker,2014-02-02 23:00:00,
2014-02-02 16:05:00,21.7,6.9,24.72,NNW,337,0.0,0.0,52,0.00,,,0.00,WeatherTracker,2014-02-02 23:05:00,
2014-02-02 16:10:00,21.6,6.7,24.72,NNW,344,0.0,0.0,52,0.00,,,0.00,WeatherTracker,2014-02-02 23:10:00,
2014-02-02 16:15:00,21.6,6.7,24.72,NNW,331,0.0,0.0,52,0.00,,,0.00,WeatherTracker,2014-02-02 23:15:00,
2014-02-02 16:20:00,21.6,6.7,24.72,NNW,334,0.0,0.0,52,0.00,,,0.00,WeatherTracker,2014-02-02 23:20:00,
2014-02-02 16:25:00,21.4,6.5,24.72,NNW,336,0.0,0.0,52,0.00,,,0.00,WeatherTracker,2014-02-02 23:25:00,
2014-02-02 16:30:00,21.2,6.4,24.72,NW,315,0.0,0.0,52,0.00,,,0.00,WeatherTracker,2014-02-02 23:30:00,
2014-02-02 16:35:00,21.2,6.4,24.72,North,1,0.0,0.0,52,0.00,,,0.00,WeatherTracker,2014-02-02 23:35:00,
2014-02-02 16:40:00,21.2,6.4,24.72,NNW,342,0.0,0.0,52,0.00,,,0.00,WeatherTracker,2014-02-02 23:40:00,
2014-02-02 16:45:00,21.0,6.2,24.72,North,7,0.0,0.0,52,0.00,,,0.00,WeatherTracker,2014-02-02 23:45:00,
2014-02-02 16:50:00,20.8,6.0,24.72,North,353,0.0,0.0,52,0.00,,,0.00,WeatherTracker,2014-02-02 23:50:00,
2014-02-02 17:00:00,20.3,5.5,24.72,NNW,340,0.0,0.0,52,0.00,,,0.00,WeatherTracker,2014-02-03 00:00:00,
2014-02-02 17:05:00,20.1,5.3,24.72,North,357,0.0,0.0,52,0.00,,,0.00,WeatherTracker,2014-02-03 00:05:00,
2014-02-02 17:10:00,19.6,4.8,24.72,NNW,335,0.0,0.0,52,0.00,,,0.00,WeatherTracker,2014-02-03 00:10:00,
2014-02-02 17:15:00,19.2,4.9,24.72,NNW,335,0.0,0.0,53,0.00,,,0.00,WeatherTracker,2014-02-03 00:15:00,
2014-02-02 17:25:00,18.7,4.4,24.72,NNW,344,0.0,0.0,53,0.00,,,0.00,WeatherTracker,2014-02-03 00:25:00,
2014-02-02 17:35:00,18.1,3.9,24.72,NNW,344,0.0,0.0,53,0.00,,,0.00,WeatherTracker,2014-02-03 00:35:00,
2014-02-02 17:40:00,17.4,3.2,24.72,NNW,344,0.0,0.0,53,0.00,,,0.00,WeatherTracker,2014-02-03 00:40:00,
2014-02-02 17:45:00,17.1,2.9,24.72,NNW,344,0.0,0.0,53,0.00,,,0.00,WeatherTracker,2014-02-03 00:45:00,
2014-02-02 17:50:00,16.9,2.7,24.72,NNW,344,0.0,0.0,53,0.00,,,0.00,WeatherTracker,2014-02-03 00:50:00,
2014-02-02 17:55:00,16.9,3.1,24.72,NNW,344,0.0,0.0,54,0.00,,,0.00,WeatherTracker,2014-02-03 00:55:00,
2014-02-02 19:25:00,12.7,-0.3,24.72,WNW,303,0.0,0.0,55,0.00,,,0.00,WeatherTracker,2014-02-03 02:25:00,
2014-02-02 19:30:00,12.6,-0.5,24.72,WNW,303,0.0,0.0,55,0.00,,,0.00,WeatherTracker,2014-02-03 02:30:00,
2014-02-02 19:35:00,12.2,-0.8,24.72,WNW,303,0.0,0.0,55,0.00,,,0.00,WeatherTracker,2014-02-03 02:35:00,
2014-02-02 19:45:00,12.0,-1.0,24.72,WNW,303,0.0,0.0,55,0.00,,,0.00,WeatherTracker,2014-02-03 02:45:00,
2014-02-02 19:55:00,11.8,-1.2,24.69,WNW,302,0.0,0.0,55,0.00,,,0.00,WeatherTracker,2014-02-03 02:55:00,
2014-02-02 20:05:00,11.7,-1.3,24.69,WNW,285,0.0,0.0,55,0.00,,,0.00,WeatherTracker,2014-02-03 03:05:00,
2014-02-02 20:15:00,11.3,-1.7,24.69,WNW,285,0.0,0.0,55,0.00,,,0.00,WeatherTracker,2014-02-03 03:15:00,
2014-02-02 20:30:00,10.9,-2.0,24.69,WNW,285,0.0,0.0,55,0.00,,,0.00,WeatherTracker,2014-02-03 03:30:00,
2014-02-02 20:35:00,10.8,-2.2,24.69,WNW,285,0.0,0.0,55,0.00,,,0.00,WeatherTracker,2014-02-03 03:35:00,
2014-02-02 20:40:00,10.8,-2.2,24.69,WNW,285,0.0,0.0,55,0.00,,,0.00,WeatherTracker,2014-02-03 03:40:00,
2014-02-02 20:50:00,10.4,-2.5,24.69,WNW,285,0.0,0.0,55,0.00,,,0.00,WeatherTracker,2014-02-03 03:50:00,
2014-02-02 20:55:00,10.4,-2.5,24.69,WNW,285,0.0,0.0,55,0.00,,,0.00,WeatherTracker,2014-02-03 03:55:00,
2014-02-02 21:05:00,10.8,-2.2,24.69,WNW,285,0.0,0.0,55,0.00,,,0.00,WeatherTracker,2014-02-03 04:05:00,
2014-02-02 21:10:00,10.8,-2.2,24.69,WNW,285,0.0,0.0,55,0.00,,,0.00,WeatherTracker,2014-02-03 04:10:00,
2014-02-02 21:15:00,10.8,-2.2,24.69,WNW,285,0.0,0.0,55,0.00,,,0.00,WeatherTracker,2014-02-03 04:15:00,
2014-02-02 21:20:00,10.8,-2.2,24.69,WNW,285,0.0,0.0,55,0.00,,,0.00,WeatherTracker,2014-02-03 04:20:00,
2014-02-02 21:30:00,10.9,-2.0,24.69,WNW,285,0.0,0.0,55,0.00,,,0.00,WeatherTracker,2014-02-03 04:30:00,
2014-02-02 21:35:00,10.9,-2.0,24.69,WNW,285,0.0,0.0,55,0.00,,,0.00,WeatherTracker,2014-02-03 04:35:00,
2014-02-02 21:40:00,11.1,-1.9,24.69,WNW,285,0.0,0.0,55,0.00,,,0.00,WeatherTracker,2014-02-03 04:40:00,
2014-02-02 21:50:00,11.3,-1.7,24.69,WNW,285,0.0,0.0,55,0.00,,,0.00,WeatherTracker,2014-02-03 04:50:00,
2014-02-02 21:55:00,11.3,-1.7,24.69,WNW,285,0.0,0.0,55,0.00,,,0.00,WeatherTracker,2014-02-03 04:55:00,
2014-02-02 22:00:00,11.5,-1.5,24.69,WSW,257,0.0,0.0,55,0.00,,,0.00,WeatherTracker,2014-02-03 05:00:00,
2014-02-02 22:05:00,11.7,-1.3,24.69,WSW,256,0.0,0.0,55,0.00,,,0.00,WeatherTracker,2014-02-03 05:05:00,
2014-02-02 22:10:00,11.7,-1.3,24.69,WSW,256,0.0,0.0,55,0.00,,,0.00,WeatherTracker,2014-02-03 05:10:00,
2014-02-02 22:15:00,11.8,-1.2,24.69,WSW,256,0.0,0.0,55,0.00,,,0.00,WeatherTracker,2014-02-03 05:15:00,
2014-02-02 22:20:00,12.0,-1.0,24.69,WSW,256,0.0,0.0,55,0.00,,,0.00,WeatherTracker,2014-02-03 05:20:00,
2014-02-02 22:30:00,12.2,-0.8,24.69,WSW,245,0.0,0.0,55,0.00,,,0.00,WeatherTracker,2014-02-03 05:30:00,
2014-02-02 22:40:00,12.6,-0.5,24.66,WSW,243,0.0,0.0,55,0.00,,,0.00,WeatherTracker,2014-02-03 05:40:00,
2014-02-02 22:45:00,12.7,-0.3,24.66,WSW,244,0.0,0.0,55,0.00,,,0.00,WeatherTracker,2014-02-03 05:45:00,
2014-02-02 22:50:00,12.7,-0.3,24.66,WSW,243,0.0,0.0,55,0.00,,,0.00,WeatherTracker,2014-02-03 05:50:00,
2014-02-02 22:55:00,12.6,-0.5,24.66,WSW,244,0.0,0.0,55,0.00,,,0.00,WeatherTracker,2014-02-03 05:55:00,
2014-02-02 23:00:00,12.6,-0.5,24.66,WSW,243,0.0,0.0,55,0.00,,,0.00,WeatherTracker,2014-02-03 06:00:00,
2014-02-02 23:10:00,12.4,-0.7,24.66,WSW,243,0.0,0.0,55,0.00,,,0.00,WeatherTracker,2014-02-03 06:10:00,
2014-02-02 23:15:00,12.2,-0.8,24.66,WSW,244,0.0,0.0,55,0.00,,,0.00,WeatherTracker,2014-02-03 06:15:00,
2014-02-02 23:25:00,11.8,-1.2,24.66,WSW,244,0.0,0.0,55,0.00,,,0.00,WeatherTracker,2014-02-03 06:25:00,
2014-02-02 23:30:00,11.7,-1.3,24.66,WSW,243,0.0,0.0,55,0.00,,,0.00,WeatherTracker,2014-02-03 06:30:00,
2014-02-02 23:35:00,11.3,-1.7,24.66,ESE,103,0.0,0.0,55,0.00,,,0.00,WeatherTracker,2014-02-03 06:35:00,
2014-02-02 23:40:00,11.3,-1.7,24.66,ESE,117,0.0,0.0,55,0.00,,,0.00,WeatherTracker,2014-02-03 06:40:00,
2014-02-02 23:50:00,11.1,-1.9,24.66,ESE,117,0.0,0.0,55,0.00,,,0.00,WeatherTracker,2014-02-03 06:50:00,
2014-02-02 23:55:00,11.1,-1.9,24.66,ESE,117,0.0,0.0,55,0.00,,,0.00,WeatherTracker,2014-02-03 06:55:00,